Time;durP1;ratioP1;P1;durP2;ratioP2;P2;SDS_P1;SDS_P2;PMS_P1;PMS_P2;Temp;Humidity;BMP_temperature;BMP_pressure;BME280_temperature;BME280_humidity;BME280_pressure;Samples;Min_cycle;Max_cycle;Signal;HPM_P1;HPM_P2
2021/08/09 00:00:28;;;;;;;14.37;13.50;;;14.40;99.90;;;;;;5053109;28;20938;-69
2021/08/09 00:02:55;;;;;;;14.27;13.10;;;14.40;99.90;;;;;;5047073;28;20459;-69
2021/08/09 00:05:23;;;;;;;14.80;13.67;;;14.30;99.90;;;;;;5053571;28;20550;-68
2021/08/09 00:07:49;;;;;;;14.03;12.90;;;14.30;99.90;;;;;;5044991;28;20459;-69
2021/08/09 00:10:16;;;;;;;16.03;14.63;;;14.30;99.90;;;;;;5052520;28;20466;-70
2021/08/09 00:12:43;;;;;;;14.83;13.73;;;14.20;99.90;;;;;;5056490;28;20834;-68
2021/08/09 00:15:13;;;;;;;13.73;12.87;;;14.20;99.90;;;;;;5047498;28;21238;-68
2021/08/09 00:17:40;;;;;;;14.77;13.47;;;14.30;99.90;;;;;;5048787;28;21010;-69
2021/08/09 00:20:09;;;;;;;14.67;13.17;;;14.20;99.90;;;;;;5048394;28;20454;-69
2021/08/09 00:22:36;;;;;;;14.53;13.53;;;14.10;99.90;;;;;;5048674;28;20971;-69
2021/08/09 00:25:04;;;;;;;15.00;13.77;;;14.10;99.90;;;;;;5045153;28;20868;-70
2021/08/09 00:27:31;;;;;;;13.77;12.70;;;14.10;99.90;;;;;;5047879;28;20547;-69
2021/08/09 00:29:58;;;;;;;14.60;13.60;;;14.10;99.90;;;;;;5052542;28;20467;-71
2021/08/09 00:32:27;;;;;;;13.47;12.60;;;14.10;99.90;;;;;;5055532;28;20490;-68
2021/08/09 00:34:53;;;;;;;15.00;14.00;;;14.00;99.90;;;;;;5047257;28;20459;-70
2021/08/09 00:37:21;;;;;;;13.33;12.30;;;14.00;99.90;;;;;;5051158;28;20466;-69
2021/08/09 00:39:48;;;;;;;13.67;12.73;;;14.00;99.90;;;;;;5054070;28;20539;-68
2021/08/09 00:42:15;;;;;;;14.63;13.30;;;14.00;99.90;;;;;;5047635;28;20458;-68
2021/08/09 00:44:43;;;;;;;14.60;13.13;;;13.90;99.90;;;;;;5053709;28;20470;-69
2021/08/09 00:47:10;;;;;;;13.90;12.90;;;13.90;99.90;;;;;;5052999;28;20867;-68
2021/08/09 00:49:39;;;;;;;14.43;13.23;;;13.90;99.90;;;;;;5057363;28;20514;-69
2021/08/09 00:52:07;;;;;;;14.10;13.20;;;13.90;99.90;;;;;;5056607;28;20485;-68
2021/08/09 00:54:35;;;;;;;15.93;14.27;;;13.80;99.90;;;;;;5047797;28;20451;-68
2021/08/09 00:57:03;;;;;;;13.23;12.33;;;13.90;99.90;;;;;;5053405;28;20455;-69
2021/08/09 00:59:30;;;;;;;13.83;12.83;;;13.90;99.90;;;;;;5048647;28;20465;-71
2021/08/09 01:01:58;;;;;;;13.83;12.93;;;13.80;99.90;;;;;;5049374;28;20931;-68
2021/08/09 01:04:25;;;;;;;13.50;12.50;;;13.80;99.90;;;;;;5044171;28;20467;-68
2021/08/09 01:06:54;;;;;;;15.17;13.03;;;13.80;99.90;;;;;;5048199;28;20820;-69
2021/08/09 01:09:24;;;;;;;14.00;12.97;;;13.80;99.90;;;;;;5050062;28;20459;-68
2021/08/09 01:11:56;;;;;;;13.87;12.83;;;13.80;99.90;;;;;;5051068;28;20510;-68
2021/08/09 01:14:33;;;;;;;13.57;12.57;;;13.90;99.90;;;;;;5043740;28;20463;-69
2021/08/09 01:17:01;;;;;;;13.33;12.50;;;13.90;99.90;;;;;;5056971;28;20497;-71
2021/08/09 01:19:42;;;;;;;13.10;12.37;;;13.90;99.90;;;;;;5051281;28;20459;-69
2021/08/09 01:22:24;;;;;;;13.30;12.50;;;13.90;99.90;;;;;;5050032;28;20490;-69
2021/08/09 01:25:01;;;;;;;14.93;12.93;;;13.80;99.90;;;;;;5058291;28;20964;-68
2021/08/09 01:27:30;;;;;;;13.50;12.60;;;13.90;99.90;;;;;;5054712;28;20467;-69
2021/08/09 01:30:01;;;;;;;13.20;12.20;;;13.90;99.90;;;;;;5055583;28;20459;-67
2021/08/09 01:32:30;;;;;;;13.17;12.27;;;14.00;99.90;;;;;;5048328;28;20514;-68
2021/08/09 01:34:58;;;;;;;15.10;13.77;;;14.00;99.90;;;;;;5051815;28;20562;-68
2021/08/09 01:37:26;;;;;;;13.80;12.67;;;14.00;99.90;;;;;;5055980;28;20534;-69
2021/08/09 01:39:54;;;;;;;14.07;12.80;;;14.10;99.90;;;;;;5051675;28;20457;-68
2021/08/09 01:42:21;;;;;;;13.90;13.10;;;14.20;99.90;;;;;;5054034;28;20980;-70
2021/08/09 01:44:50;;;;;;;13.57;12.57;;;14.30;99.90;;;;;;5053023;28;20964;-71
2021/08/09 01:47:17;;;;;;;15.00;13.70;;;14.30;99.90;;;;;;5054971;28;20463;-69
2021/08/09 01:49:45;;;;;;;15.10;13.60;;;14.30;99.90;;;;;;5055592;28;20795;-69
2021/08/09 01:52:14;;;;;;;15.23;13.93;;;14.30;99.90;;;;;;5059112;28;21073;-71
2021/08/09 01:54:41;;;;;;;14.80;13.77;;;14.30;99.90;;;;;;5054593;28;20954;-69
2021/08/09 01:57:08;;;;;;;14.80;13.80;;;14.40;99.90;;;;;;5053753;28;20463;-69
2021/08/09 01:59:35;;;;;;;14.90;13.80;;;14.50;99.90;;;;;;5053671;28;20462;-71
2021/08/09 02:02:03;;;;;;;14.60;13.70;;;14.50;99.90;;;;;;5051123;28;20464;-71
2021/08/09 02:04:30;;;;;;;15.63;14.17;;;14.60;99.90;;;;;;5055733;28;20919;-70
2021/08/09 02:06:57;;;;;;;14.93;14.00;;;14.60;99.90;;;;;;5054279;28;20451;-71
2021/08/09 02:09:25;;;;;;;15.03;13.80;;;14.60;99.90;;;;;;5054831;28;20565;-71
2021/08/09 02:11:56;;;;;;;14.43;13.57;;;14.60;99.90;;;;;;5053510;28;20459;-69
2021/08/09 02:14:27;;;;;;;14.60;13.50;;;14.60;99.90;;;;;;5054040;28;21012;-68
2021/08/09 02:17:03;;;;;;;14.70;13.80;;;14.60;99.90;;;;;;5056140;28;20479;-69
2021/08/09 02:19:39;;;;;;;16.37;15.03;;;14.50;99.90;;;;;;5053682;28;20450;-68
2021/08/09 02:22:10;;;;;;;15.17;14.10;;;14.50;99.90;;;;;;5052410;28;20495;-69
2021/08/09 02:24:45;;;;;;;16.00;14.60;;;14.40;99.90;;;;;;5052613;28;20455;-69
2021/08/09 02:27:15;;;;;;;15.90;14.90;;;14.40;99.90;;;;;;5054646;28;20463;-69
2021/08/09 02:29:46;;;;;;;15.10;14.17;;;14.40;99.90;;;;;;5050740;28;20460;-69
2021/08/09 02:32:16;;;;;;;14.97;13.97;;;14.50;99.90;;;;;;5050202;28;20517;-69
2021/08/09 02:34:45;;;;;;;15.47;14.37;;;14.50;99.90;;;;;;5059894;28;20468;-68
2021/08/09 02:37:13;;;;;;;16.00;14.67;;;14.50;99.90;;;;;;5056772;28;20463;-69
2021/08/09 02:39:41;;;;;;;15.53;14.10;;;14.50;99.90;;;;;;5049311;28;20459;-68
2021/08/09 02:42:09;;;;;;;14.67;13.70;;;14.40;99.90;;;;;;5051465;28;20469;-70
2021/08/09 02:44:37;;;;;;;14.27;13.33;;;14.40;99.90;;;;;;5052484;28;20491;-69
2021/08/09 02:47:06;;;;;;;14.50;13.50;;;14.50;99.90;;;;;;5056053;28;20456;-69
2021/08/09 02:49:34;;;;;;;15.47;14.30;;;14.50;99.90;;;;;;5050632;28;20563;-71
2021/08/09 02:52:05;;;;;;;15.53;14.27;;;14.50;99.90;;;;;;5054628;28;20606;-69
2021/08/09 02:54:34;;;;;;;15.37;14.03;;;14.50;99.90;;;;;;5056810;28;20558;-69
2021/08/09 02:57:03;;;;;;;14.80;13.50;;;14.60;99.90;;;;;;5048101;28;20460;-70
2021/08/09 02:59:30;;;;;;;15.80;14.37;;;14.60;99.90;;;;;;5050117;28;20471;-71
2021/08/09 03:01:58;;;;;;;14.40;13.43;;;14.50;99.90;;;;;;5054492;28;20712;-68
2021/08/09 03:04:28;;;;;;;15.40;14.50;;;14.60;99.90;;;;;;5054054;28;20467;-68
2021/08/09 03:06:56;;;;;;;15.10;13.80;;;14.60;99.90;;;;;;5051888;28;20462;-68
2021/08/09 03:09:25;;;;;;;14.97;13.97;;;14.60;99.90;;;;;;5053649;28;20457;-68
2021/08/09 03:11:51;;;;;;;15.47;14.23;;;14.60;99.90;;;;;;5055029;28;20451;-68
2021/08/09 03:14:23;;;;;;;14.37;13.57;;;14.60;99.90;;;;;;5049901;28;20497;-68
2021/08/09 03:16:51;;;;;;;14.33;13.13;;;14.60;99.90;;;;;;5051097;28;20485;-69
2021/08/09 03:19:18;;;;;;;15.67;14.40;;;14.60;99.90;;;;;;5047362;28;20466;-70
2021/08/09 03:21:52;;;;;;;15.20;14.20;;;14.50;99.90;;;;;;5050705;28;20468;-68
2021/08/09 03:24:20;;;;;;;15.97;15.03;;;14.50;99.90;;;;;;5049147;28;20451;-69
2021/08/09 03:26:48;;;;;;;15.87;14.63;;;14.50;99.90;;;;;;5053948;28;20490;-68
2021/08/09 03:29:15;;;;;;;15.33;14.20;;;14.50;99.90;;;;;;5049021;28;20462;-69
2021/08/09 03:31:42;;;;;;;15.83;14.70;;;14.50;99.90;;;;;;5046328;28;21065;-69
2021/08/09 03:34:09;;;;;;;15.43;14.33;;;14.50;99.90;;;;;;5049645;28;20485;-69
2021/08/09 03:36:41;;;;;;;14.70;13.90;;;14.50;99.90;;;;;;5052408;28;20467;-68
2021/08/09 03:39:08;;;;;;;15.50;14.30;;;14.50;99.90;;;;;;5048620;28;20487;-68
2021/08/09 03:41:35;;;;;;;15.00;14.10;;;14.50;99.90;;;;;;5051085;28;20556;-68
2021/08/09 03:44:03;;;;;;;15.63;14.30;;;14.50;99.90;;;;;;5050641;28;21034;-70
2021/08/09 03:46:30;;;;;;;15.60;14.60;;;14.50;99.90;;;;;;5054048;28;20456;-69
2021/08/09 03:48:57;;;;;;;15.13;13.93;;;14.50;99.90;;;;;;5052732;28;20975;-70
2021/08/09 03:51:24;;;;;;;15.60;14.50;;;14.60;99.90;;;;;;5054234;28;20452;-69
2021/08/09 03:53:51;;;;;;;14.97;14.07;;;14.60;99.90;;;;;;5050104;28;20487;-69
2021/08/09 03:56:18;;;;;;;15.27;14.37;;;14.60;99.90;;;;;;5054017;28;20488;-68
2021/08/09 03:58:45;;;;;;;15.70;14.30;;;14.70;99.90;;;;;;5051483;28;20451;-69
2021/08/09 04:01:14;;;;;;;15.10;13.83;;;14.80;99.90;;;;;;5046304;28;20463;-71
2021/08/09 04:03:41;;;;;;;15.27;14.17;;;14.70;99.90;;;;;;5045336;28;20460;-69
2021/08/09 04:06:07;;;;;;;15.80;14.70;;;14.80;99.90;;;;;;5052557;28;20462;-69
2021/08/09 04:08:34;;;;;;;15.80;14.80;;;14.80;99.90;;;;;;5050468;28;20703;-70
2021/08/09 04:11:01;;;;;;;15.30;14.13;;;14.80;99.90;;;;;;5049029;28;20452;-69
2021/08/09 04:13:28;;;;;;;15.07;13.97;;;14.90;99.90;;;;;;5047528;28;20908;-69
2021/08/09 04:15:55;;;;;;;16.63;14.73;;;14.90;99.90;;;;;;5056899;28;20486;-69
2021/08/09 04:18:24;;;;;;;14.83;14.03;;;14.80;99.90;;;;;;5043162;28;20448;-69
2021/08/09 04:20:51;;;;;;;15.27;14.17;;;14.80;99.90;;;;;;5051632;28;20452;-68
2021/08/09 04:23:17;;;;;;;15.07;14.00;;;14.80;99.90;;;;;;5051932;28;20919;-68
2021/08/09 04:25:44;;;;;;;15.67;14.57;;;14.90;99.90;;;;;;5049031;28;20569;-70
2021/08/09 04:28:11;;;;;;;17.23;15.80;;;14.90;99.90;;;;;;5048130;28;20459;-69
2021/08/09 04:30:38;;;;;;;15.77;14.67;;;14.90;99.90;;;;;;5048059;28;20455;-69
2021/08/09 04:33:05;;;;;;;16.17;14.97;;;14.90;99.90;;;;;;5047585;28;20491;-69
2021/08/09 04:35:33;;;;;;;15.63;14.50;;;14.80;99.90;;;;;;5054353;28;20462;-69
2021/08/09 04:38:00;;;;;;;15.97;14.97;;;14.80;99.90;;;;;;5050819;28;20467;-69
2021/08/09 04:40:27;;;;;;;15.87;14.77;;;14.80;99.90;;;;;;5055320;28;20797;-69
2021/08/09 04:42:54;;;;;;;15.00;14.20;;;14.80;99.90;;;;;;5051602;28;20964;-69
2021/08/09 04:45:21;;;;;;;16.50;15.30;;;14.90;99.90;;;;;;5046942;28;20451;-70
2021/08/09 04:47:48;;;;;;;15.37;14.27;;;14.90;99.90;;;;;;5049235;28;20922;-69
2021/08/09 04:50:15;;;;;;;15.67;14.57;;;14.90;99.90;;;;;;5049072;28;20476;-68
2021/08/09 04:52:43;;;;;;;15.97;14.77;;;14.90;99.90;;;;;;5051173;28;20710;-69
2021/08/09 04:55:11;;;;;;;14.83;14.03;;;14.90;99.90;;;;;;5058755;28;20475;-71
2021/08/09 04:57:38;;;;;;;16.30;15.20;;;14.90;99.90;;;;;;5057871;28;20533;-69
2021/08/09 05:00:06;;;;;;;15.70;14.70;;;14.90;99.90;;;;;;5053298;28;20469;-69
2021/08/09 05:02:35;;;;;;;16.33;14.80;;;15.00;99.90;;;;;;5053295;28;20850;-69
2021/08/09 05:05:03;;;;;;;15.90;14.70;;;15.00;99.90;;;;;;5053003;28;20954;-71
2021/08/09 05:07:30;;;;;;;15.87;14.90;;;15.10;99.90;;;;;;5052526;28;20513;-69
2021/08/09 05:09:58;;;;;;;15.60;14.47;;;15.10;99.90;;;;;;5055928;28;20461;-68
2021/08/09 05:12:25;;;;;;;17.03;15.63;;;15.10;99.90;;;;;;5054492;28;21220;-70
2021/08/09 05:14:53;;;;;;;16.73;15.37;;;15.20;99.90;;;;;;5056282;28;20551;-69
2021/08/09 05:17:20;;;;;;;17.43;15.60;;;15.20;99.90;;;;;;5050762;28;20488;-69
2021/08/09 05:19:47;;;;;;;16.57;15.30;;;15.20;99.90;;;;;;5055918;28;20463;-69
2021/08/09 05:22:14;;;;;;;16.13;14.77;;;15.30;99.90;;;;;;5056445;28;20466;-69
2021/08/09 05:24:42;;;;;;;16.80;15.70;;;15.30;99.90;;;;;;5053927;28;20475;-69
2021/08/09 05:27:10;;;;;;;16.30;15.10;;;15.30;99.90;;;;;;5052167;28;20886;-68
2021/08/09 05:29:37;;;;;;;16.80;15.40;;;15.40;99.90;;;;;;5054984;28;20463;-70
2021/08/09 05:32:06;;;;;;;17.30;15.90;;;15.40;99.90;;;;;;5054145;28;20455;-69
2021/08/09 05:34:33;;;;;;;16.53;15.23;;;15.50;99.90;;;;;;5053252;28;20505;-69
2021/08/09 05:36:59;;;;;;;15.80;14.80;;;15.40;99.90;;;;;;5053434;28;20541;-71
2021/08/09 05:39:26;;;;;;;16.93;15.63;;;15.40;99.90;;;;;;5051658;28;20816;-71
2021/08/09 05:41:53;;;;;;;16.43;15.27;;;15.40;99.90;;;;;;5058936;28;20535;-69
2021/08/09 05:44:21;;;;;;;17.00;15.73;;;15.40;99.90;;;;;;5046880;28;20462;-68
2021/08/09 05:46:50;;;;;;;16.50;15.27;;;15.40;99.90;;;;;;5055584;28;20482;-69
2021/08/09 05:49:17;;;;;;;21.97;16.27;;;15.40;99.90;;;;;;5050470;28;20476;-69
2021/08/09 05:51:43;;;;;;;15.73;14.60;;;15.40;99.90;;;;;;5055413;28;20463;-69
2021/08/09 05:54:10;;;;;;;16.60;15.23;;;15.40;99.90;;;;;;5050272;28;20509;-69
2021/08/09 05:56:37;;;;;;;17.37;15.70;;;15.50;99.90;;;;;;5048323;28;20464;-68
2021/08/09 05:59:05;;;;;;;16.53;15.13;;;15.50;99.90;;;;;;5054532;28;20793;-69
2021/08/09 06:01:33;;;;;;;16.67;15.33;;;15.50;99.90;;;;;;5051966;28;20482;-68
2021/08/09 06:04:00;;;;;;;16.20;14.80;;;15.50;99.90;;;;;;5050164;28;20467;-69
2021/08/09 06:06:27;;;;;;;16.40;15.10;;;15.50;99.90;;;;;;5054204;28;20455;-68
2021/08/09 06:08:55;;;;;;;16.40;14.77;;;15.60;99.90;;;;;;5048828;28;20822;-69
2021/08/09 06:11:22;;;;;;;17.20;15.57;;;15.60;99.90;;;;;;5055228;28;20452;-69
2021/08/09 06:13:49;;;;;;;15.90;14.30;;;15.70;99.90;;;;;;5054326;28;20484;-69
2021/08/09 06:16:16;;;;;;;15.83;14.50;;;15.80;99.90;;;;;;5054278;28;20510;-69
2021/08/09 06:18:44;;;;;;;15.30;14.50;;;15.90;99.90;;;;;;5052384;28;20467;-71
2021/08/09 06:21:12;;;;;;;15.93;14.83;;;15.90;99.90;;;;;;5051497;28;20494;-70
2021/08/09 06:23:38;;;;;;;16.83;15.43;;;16.00;99.90;;;;;;5056508;28;20474;-71
2021/08/09 06:26:05;;;;;;;15.50;14.20;;;16.10;99.90;;;;;;5053037;28;20465;-71
2021/08/09 06:28:35;;;;;;;15.40;14.50;;;16.20;99.90;;;;;;5048794;28;20458;-70
2021/08/09 06:31:04;;;;;;;15.87;14.20;;;16.30;99.90;;;;;;5053304;28;20760;-69
2021/08/09 06:33:30;;;;;;;16.27;15.23;;;16.30;99.90;;;;;;5053651;28;21445;-69
2021/08/09 06:35:59;;;;;;;15.23;14.10;;;16.40;99.90;;;;;;5054051;28;20469;-69
2021/08/09 06:38:25;;;;;;;15.83;14.83;;;16.50;99.90;;;;;;5058484;28;20451;-72
2021/08/09 06:40:52;;;;;;;17.03;15.40;;;16.70;99.90;;;;;;5053347;28;20577;-70
2021/08/09 06:43:19;;;;;;;15.77;14.67;;;16.60;99.90;;;;;;5052078;28;20462;-71
2021/08/09 06:45:46;;;;;;;15.90;14.47;;;16.70;99.90;;;;;;5050045;28;20565;-69
2021/08/09 06:48:13;;;;;;;15.77;14.70;;;16.80;99.90;;;;;;5050841;28;20856;-71
2021/08/09 06:50:41;;;;;;;15.53;14.53;;;16.90;99.90;;;;;;5050631;28;20938;-72
2021/08/09 06:53:10;;;;;;;15.50;14.60;;;17.00;99.90;;;;;;5053321;28;20455;-69
2021/08/09 06:55:37;;;;;;;16.27;15.10;;;17.00;99.90;;;;;;5053707;28;20466;-72
2021/08/09 06:58:04;;;;;;;15.93;14.80;;;17.10;99.90;;;;;;5053495;28;20460;-72
2021/08/09 07:00:31;;;;;;;16.53;15.10;;;17.30;99.90;;;;;;5055944;28;20482;-72
2021/08/09 07:03:04;;;;;;;16.57;15.00;;;17.30;99.90;;;;;;5053097;28;20471;-69
2021/08/09 07:05:31;;;;;;;15.83;14.63;;;17.40;99.90;;;;;;5060234;28;20687;-69
2021/08/09 07:07:58;;;;;;;16.30;14.90;;;17.60;99.90;;;;;;5049276;28;20460;-69
2021/08/09 07:10:26;;;;;;;17.00;15.43;;;17.70;99.90;;;;;;5050379;28;20806;-69
2021/08/09 07:12:54;;;;;;;15.90;14.80;;;17.90;99.90;;;;;;5050644;28;20456;-71
2021/08/09 07:15:21;;;;;;;16.20;14.80;;;18.00;99.90;;;;;;5053744;28;20565;-68
2021/08/09 07:17:48;;;;;;;15.87;14.63;;;18.20;99.90;;;;;;5045644;28;20455;-72
2021/08/09 07:20:16;;;;;;;16.00;15.00;;;18.50;99.90;;;;;;5055565;28;20994;-69
2021/08/09 07:22:43;;;;;;;16.83;15.63;;;18.40;99.90;;;;;;5051363;28;20492;-68
2021/08/09 07:25:13;;;;;;;15.53;14.53;;;18.70;99.90;;;;;;5051137;28;20516;-70
2021/08/09 07:27:41;;;;;;;15.27;14.23;;;19.00;99.90;;;;;;5050964;28;20496;-68
2021/08/09 07:30:11;;;;;;;15.40;14.57;;;19.40;99.90;;;;;;5049651;28;20460;-71
2021/08/09 07:32:38;;;;;;;15.30;14.50;;;19.30;99.90;;;;;;5053485;28;20455;-71
2021/08/09 07:35:06;;;;;;;15.70;14.70;;;19.50;99.90;;;;;;5054907;28;20487;-68
2021/08/09 07:37:33;;;;;;;16.20;15.07;;;19.60;99.90;;;;;;5054239;28;20455;-69
2021/08/09 07:40:00;;;;;;;15.90;14.83;;;19.70;99.90;;;;;;5051737;28;20494;-71
2021/08/09 07:42:27;;;;;;;15.83;14.60;;;19.90;99.90;;;;;;5051540;28;20824;-68
2021/08/09 07:44:56;;;;;;;15.00;13.90;;;20.00;99.90;;;;;;5050838;28;20463;-70
2021/08/09 07:47:23;;;;;;;14.73;13.87;;;20.10;99.90;;;;;;5054787;28;20571;-71
2021/08/09 07:49:50;;;;;;;15.37;14.10;;;20.30;99.90;;;;;;5051732;28;21013;-68
2021/08/09 07:52:17;;;;;;;14.30;13.40;;;20.40;99.90;;;;;;5055135;28;20466;-68
2021/08/09 07:54:44;;;;;;;13.90;13.20;;;20.50;99.90;;;;;;5049160;28;20486;-68
2021/08/09 07:57:11;;;;;;;14.60;13.90;;;20.40;99.90;;;;;;5047755;28;20452;-69
2021/08/09 07:59:38;;;;;;;13.90;13.30;;;20.40;99.90;;;;;;5055595;28;20541;-68
2021/08/09 08:02:07;;;;;;;14.00;13.20;;;20.60;99.90;;;;;;5056757;28;20455;-68
2021/08/09 08:04:34;;;;;;;14.20;13.27;;;20.70;99.90;;;;;;5045039;28;21048;-68
2021/08/09 08:07:00;;;;;;;13.77;12.87;;;20.60;99.90;;;;;;5051422;28;20448;-68
2021/08/09 08:09:27;;;;;;;14.37;13.43;;;20.90;99.90;;;;;;5044587;28;20466;-68
2021/08/09 08:11:54;;;;;;;14.27;13.47;;;20.80;99.90;;;;;;5047548;28;20464;-68
2021/08/09 08:14:21;;;;;;;14.83;13.60;;;20.90;99.90;;;;;;5051731;28;21063;-69
2021/08/09 08:16:48;;;;;;;18.90;17.07;;;20.70;99.90;;;;;;5051960;28;20493;-68
2021/08/09 08:19:16;;;;;;;14.67;13.73;;;20.50;99.90;;;;;;5056011;28;20467;-70
2021/08/09 08:21:43;;;;;;;14.47;13.70;;;20.60;99.90;;;;;;5052536;28;20467;-70
2021/08/09 08:24:09;;;;;;;16.60;15.10;;;20.60;99.90;;;;;;5050236;28;20466;-70
2021/08/09 08:26:36;;;;;;;14.40;13.60;;;20.40;99.90;;;;;;5049157;28;20460;-68
2021/08/09 08:29:03;;;;;;;13.67;12.90;;;20.50;99.90;;;;;;5052507;28;20876;-71
2021/08/09 08:31:30;;;;;;;14.10;13.30;;;20.70;99.90;;;;;;5048600;28;20792;-71
2021/08/09 08:33:57;;;;;;;15.03;13.93;;;20.70;99.90;;;;;;5050279;28;20463;-68
2021/08/09 08:36:26;;;;;;;15.63;14.63;;;20.70;99.90;;;;;;5050039;28;20470;-69
2021/08/09 08:38:52;;;;;;;14.90;14.00;;;20.80;99.90;;;;;;5049193;28;20458;-71
2021/08/09 08:41:19;;;;;;;14.33;13.53;;;21.00;99.90;;;;;;5055252;28;20864;-71
2021/08/09 08:43:46;;;;;;;14.57;13.60;;;21.30;99.90;;;;;;5049807;28;20464;-68
2021/08/09 08:46:13;;;;;;;14.60;13.70;;;21.40;99.90;;;;;;5050806;28;20469;-69
2021/08/09 08:48:40;;;;;;;14.40;13.60;;;22.10;99.90;;;;;;5049885;28;20481;-68
2021/08/09 08:51:07;;;;;;;14.93;13.80;;;22.20;99.90;;;;;;5050278;28;20481;-68
2021/08/09 08:53:37;;;;;;;16.43;15.33;;;22.50;99.90;;;;;;5048328;28;20563;-69
2021/08/09 08:56:06;;;;;;;14.30;13.60;;;23.00;99.90;;;;;;5051136;28;20491;-72
2021/08/09 08:58:33;;;;;;;15.37;14.33;;;23.90;99.90;;;;;;5049779;28;20529;-69
2021/08/09 09:01:00;;;;;;;15.13;13.80;;;24.10;99.90;;;;;;5049542;28;20464;-72
2021/08/09 09:03:28;;;;;;;15.30;14.07;;;24.20;99.90;;;;;;5053846;28;20963;-69
2021/08/09 09:06:03;;;;;;;15.57;14.20;;;24.50;99.90;;;;;;5055161;28;20466;-69
2021/08/09 09:08:38;;;;;;;14.97;13.80;;;24.60;99.90;;;;;;5044613;28;20459;-69
2021/08/09 09:11:06;;;;;;;14.30;13.53;;;24.20;99.90;;;;;;5049746;28;20451;-68
2021/08/09 09:13:33;;;;;;;15.70;14.50;;;24.10;99.90;;;;;;5048799;28;20497;-69
2021/08/09 09:16:06;;;;;;;14.70;13.73;;;23.80;99.90;;;;;;5050318;28;20502;-68
2021/08/09 09:18:55;;;;;;;14.87;14.17;;;23.20;99.90;;;;;;5048257;28;21162;-68
2021/08/09 09:21:27;;;;;;;15.43;14.30;;;22.90;99.90;;;;;;5044874;28;21617;-69
2021/08/09 09:24:06;;;;;;;14.60;13.70;;;22.30;99.90;;;;;;5057231;28;20455;-69
2021/08/09 09:26:33;;;;;;;16.13;14.90;;;22.40;99.90;;;;;;5049230;28;20455;-69
2021/08/09 09:29:07;;;;;;;16.13;15.13;;;22.40;99.90;;;;;;5055303;28;20656;-68
2021/08/09 09:31:34;;;;;;;15.43;14.37;;;22.60;99.90;;;;;;5052743;28;20513;-69
2021/08/09 09:34:05;;;;;;;15.50;14.60;;;22.80;99.90;;;;;;5055287;28;20471;-69
2021/08/09 09:36:48;;;;;;;15.53;14.73;;;22.70;99.90;;;;;;5048777;28;20455;-71
2021/08/09 09:39:30;;;;;;;14.60;13.77;;;22.70;99.90;;;;;;5047620;28;20480;-68
2021/08/09 09:41:59;;;;;;;22.40;20.10;;;22.80;99.90;;;;;;5057127;28;20504;-68
2021/08/09 09:44:28;;;;;;;15.30;14.30;;;22.80;99.90;;;;;;5054098;28;20776;-68
2021/08/09 09:47:24;;;;;;;15.27;14.37;;;23.00;99.90;;;;;;5052079;28;20466;-69
2021/08/09 09:49:53;;;;;;;14.77;14.03;;;23.00;99.90;;;;;;5051918;28;20489;-70
2021/08/09 09:52:30;;;;;;;15.37;14.47;;;22.80;99.90;;;;;;5054624;28;20578;-68
2021/08/09 09:55:00;;;;;;;15.83;14.87;;;22.90;99.90;;;;;;5052217;28;20479;-72
2021/08/09 09:57:28;;;;;;;16.70;15.27;;;22.90;99.90;;;;;;5051220;28;20459;-68
2021/08/09 09:59:56;;;;;;;19.70;17.60;;;23.00;99.90;;;;;;5059822;28;20482;-68
2021/08/09 10:02:23;;;;;;;15.40;13.97;;;23.20;99.90;;;;;;5059148;28;20452;-67
2021/08/09 10:04:51;;;;;;;15.17;14.00;;;23.80;99.90;;;;;;5056022;28;20469;-68
2021/08/09 10:07:19;;;;;;;14.90;14.00;;;23.80;99.90;;;;;;5051222;28;20512;-68
2021/08/09 10:09:49;;;;;;;15.03;14.30;;;23.80;99.90;;;;;;5051918;28;20551;-68
2021/08/09 10:12:19;;;;;;;15.57;14.63;;;23.60;99.90;;;;;;5052580;28;20498;-70
2021/08/09 10:14:48;;;;;;;14.87;14.17;;;23.30;99.90;;;;;;5056497;28;20492;-73
2021/08/09 10:17:16;;;;;;;15.83;14.93;;;23.50;99.90;;;;;;5054128;28;20884;-70
2021/08/09 10:19:47;;;;;;;15.37;14.53;;;23.80;99.90;;;;;;5053824;28;20468;-67
2021/08/09 10:22:14;;;;;;;16.10;14.90;;;23.10;99.90;;;;;;5057631;28;20459;-68
2021/08/09 10:24:42;;;;;;;16.37;15.30;;;23.50;99.90;;;;;;5050538;28;20486;-67
2021/08/09 10:27:10;;;;;;;15.80;14.60;;;24.20;99.90;;;;;;5056756;28;20570;-67
2021/08/09 10:30:13;;;;;;;16.27;15.13;;;24.60;99.90;;;;;;5054971;28;20459;-68
2021/08/09 10:32:46;;;;;;;16.27;15.10;;;25.10;99.90;;;;;;5048554;28;20459;-67
2021/08/09 10:35:46;;;;;;;14.60;13.80;;;25.80;99.90;;;;;;5055364;28;20578;-67
2021/08/09 10:38:14;;;;;;;15.80;14.87;;;25.80;99.90;;;;;;5051858;28;20460;-70
2021/08/09 10:40:42;;;;;;;15.37;14.50;;;25.50;99.90;;;;;;5055553;28;20454;-71
2021/08/09 10:43:08;;;;;;;16.13;15.03;;;24.80;99.90;;;;;;5053520;28;20447;-67
2021/08/09 10:45:40;;;;;;;15.53;14.63;;;24.50;99.90;;;;;;5052960;28;20466;-67
2021/08/09 10:48:09;;;;;;;17.40;16.03;;;24.30;99.90;;;;;;5053576;28;20452;-69
2021/08/09 10:50:51;;;;;;;15.83;14.67;;;23.70;99.90;;;;;;5051273;28;20488;-67
2021/08/09 10:53:42;;;;;;;15.03;14.20;;;23.70;99.90;;;;;;5051062;28;21058;-67
2021/08/09 10:56:10;;;;;;;15.57;14.50;;;23.80;99.90;;;;;;5052182;28;20574;-68
2021/08/09 10:58:53;;;;;;;15.27;14.23;;;24.30;99.90;;;;;;5053351;28;20976;-65
2021/08/09 11:01:23;;;;;;;15.10;14.00;;;24.50;99.90;;;;;;5050614;28;20464;-69
2021/08/09 11:04:16;;;;;;;14.20;13.50;;;24.80;99.90;;;;;;5055529;28;20553;-67
2021/08/09 11:06:50;;;;;;;15.57;14.30;;;23.90;99.90;;;;;;5048030;28;20452;-70
2021/08/09 11:09:46;;;;;;;14.13;13.50;;;23.40;99.90;;;;;;5056046;28;20483;-68
2021/08/09 11:12:16;;;;;;;14.70;13.90;;;23.20;99.90;;;;;;5051354;28;20452;-68
2021/08/09 11:15:26;;;;;;;14.90;14.10;;;23.00;99.90;;;;;;5051507;28;20459;-68
2021/08/09 11:17:57;;;;;;;14.43;13.73;;;23.30;99.90;;;;;;5055421;28;20461;-68
2021/08/09 11:20:31;;;;;;;16.30;14.80;;;23.60;99.90;;;;;;5054002;28;20686;-68
2021/08/09 11:23:01;;;;;;;14.60;13.80;;;24.10;99.90;;;;;;5049544;28;20947;-71
2021/08/09 11:25:31;;;;;;;16.37;15.20;;;23.70;99.90;;;;;;5055388;28;20801;-68
2021/08/09 11:28:03;;;;;;;14.13;13.43;;;23.60;99.90;;;;;;5050530;28;20456;-69
2021/08/09 11:30:35;;;;;;;14.60;13.80;;;24.20;99.90;;;;;;5052917;28;20488;-67
2021/08/09 11:33:03;;;;;;;14.33;13.63;;;24.50;99.90;;;;;;5051734;28;20460;-68
2021/08/09 11:35:31;;;;;;;15.50;14.40;;;24.30;99.90;;;;;;5053601;28;20894;-69
2021/08/09 11:38:01;;;;;;;14.20;13.30;;;24.00;99.90;;;;;;5054139;28;20458;-69
2021/08/09 11:40:40;;;;;;;14.43;13.63;;;24.50;99.90;;;;;;5049757;28;20459;-68
2021/08/09 11:43:07;;;;;;;14.73;13.83;;;24.40;99.90;;;;;;5053685;28;20486;-68
2021/08/09 11:45:35;;;;;;;14.97;14.17;;;24.40;99.90;;;;;;5050751;28;20447;-66
2021/08/09 11:48:02;;;;;;;14.97;13.87;;;24.20;99.90;;;;;;5048139;28;20467;-67
2021/08/09 11:50:37;;;;;;;14.73;13.77;;;24.10;99.90;;;;;;5052366;28;20483;-67
2021/08/09 11:53:05;;;;;;;14.90;14.03;;;24.60;99.90;;;;;;5048702;28;20495;-69
2021/08/09 11:55:33;;;;;;;18.27;16.67;;;25.00;99.90;;;;;;5045657;28;20479;-68
2021/08/09 11:58:00;;;;;;;14.97;14.13;;;25.00;99.90;;;;;;5048170;28;20468;-70
2021/08/09 12:00:42;;;;;;;14.97;14.17;;;25.10;99.90;;;;;;5045973;28;20471;-67
2021/08/09 12:03:16;;;;;;;15.27;14.07;;;25.70;99.90;;;;;;5052423;28;20489;-68
2021/08/09 12:05:45;;;;;;;13.87;13.17;;;25.40;99.90;;;;;;5045536;28;20463;-68
2021/08/09 12:08:13;;;;;;;14.83;13.83;;;24.90;99.90;;;;;;5049528;28;20462;-69
2021/08/09 12:10:41;;;;;;;14.30;13.47;;;24.20;99.90;;;;;;5050690;28;20806;-70
2021/08/09 12:13:29;;;;;;;15.07;14.27;;;23.80;99.90;;;;;;5049820;28;20500;-69
2021/08/09 12:16:15;;;;;;;15.27;14.27;;;23.70;99.90;;;;;;5048410;28;20535;-68
2021/08/09 12:18:54;;;;;;;15.03;13.90;;;24.10;99.90;;;;;;5050746;28;20456;-67
2021/08/09 12:21:33;;;;;;;14.60;13.80;;;24.10;99.90;;;;;;5051232;28;20468;-68
2021/08/09 12:24:01;;;;;;;14.60;13.57;;;24.80;99.90;;;;;;5044288;28;20970;-70
2021/08/09 12:26:30;;;;;;;14.80;13.83;;;25.30;99.90;;;;;;5044398;28;20953;-69
2021/08/09 12:28:59;;;;;;;14.67;13.77;;;25.00;99.90;;;;;;5058184;28;20457;-68
2021/08/09 12:31:31;;;;;;;14.10;13.37;;;24.90;99.90;;;;;;5052661;28;20955;-68
2021/08/09 12:34:02;;;;;;;15.30;14.30;;;25.50;99.90;;;;;;5053183;28;20814;-71
2021/08/09 12:36:31;;;;;;;14.60;13.90;;;26.30;99.90;;;;;;5050533;28;20570;-70
2021/08/09 12:38:58;;;;;;;14.23;13.60;;;26.10;99.90;;;;;;5050299;28;20467;-71